Marshall B. Barnes — WDG2645 — position and weather

sailwx.info

Track history (hours):
 
Tides and Currents Weather Stations Pressure Air Temp Water Temp Dewpoint Dewpoint Depression Visibility Wind Speed Wind Dir Waves Ship Positions

Marshall B. Barnes

Owner: Florida Marine, LLC, Mandeville, LA. More information available from US FCC via Universal Licensing System and Coast Guard Vessel Documentation Center.

Last reported at 2018-Feb-21 07:24 UTC. Time now 2018-Feb-24 10:11 UTC.
Position N 29°25' W 094°44'.

Length 27 m; draft 2.9 m.

Type: Ship. MMSI: 367517750.

Date/timePositionNaut miles runAvg speedWind from/ knotsBaromVisibWave heightAir tempDewpointWater temp
2018-Feb-21 07:24N 29°25' W 094°44'7 1.1
2018-Feb-21 01:25N 29°28' W 094°38'11 3.0
2018-Feb-20 21:45N 29°34' W 094°27'0 0.0
2018-Feb-20 21:30N 29°34' W 094°27'3 4.3
2018-Feb-20 20:55N 29°36' W 094°25'2 0.9
2018-Feb-20 18:47N 29°36' W 094°23'1 4.2
2018-Feb-20 18:30N 29°37' W 094°22'2 3.1
2018-Feb-20 17:58N 29°37' W 094°20'0 0.1
2018-Feb-20 17:13N 29°37' W 094°20'0 0.2
2018-Feb-20 16:43N 29°37' W 094°20'0 0.3
2018-Feb-20 16:30N 29°37' W 094°20'0 0.1
2018-Feb-20 15:54N 29°37' W 094°20'0 0.2
2018-Feb-20 15:30N 29°37' W 094°20'0 0.0
2018-Feb-20 14:48N 29°37' W 094°20'0 0.0
2018-Feb-20 14:21N 29°37' W 094°20'0 0.0
2018-Feb-20 14:00N 29°37' W 094°20'0 0.0
2018-Feb-20 13:27N 29°37' W 094°20'0 0.0
2018-Feb-20 12:54N 29°37' W 094°20'0 0.0
2018-Feb-20 12:24N 29°37' W 094°20'0 0.0
2018-Feb-20 11:48N 29°37' W 094°20'0 0.0
2018-Feb-20 11:30N 29°37' W 094°20'0 0.0
2018-Feb-20 10:48N 29°37' W 094°20'0 0.0
2018-Feb-20 10:27N 29°37' W 094°20'0 0.0
2018-Feb-20 09:51N 29°37' W 094°20'0 0.0
2018-Feb-20 09:30N 29°37' W 094°20'0 0.5
2018-Feb-20 09:00N 29°37' W 094°19'2 4.7
2018-Feb-20 08:30N 29°39' W 094°17'0 0.0
2018-Feb-20 07:13N 29°39' W 094°17'0 0.1
2018-Feb-20 06:55N 29°39' W 094°17'1 1.7
2018-Feb-20 06:30N 29°39' W 094°16'3 6.4
2018-Feb-20 06:00N 29°40' W 094°13'3 6.3
2018-Feb-20 05:30N 29°41' W 094°10'3 6.2
2018-Feb-20 05:00N 29°43' W 094°07'3 6.8
2018-Feb-20 04:30N 29°45' W 094°04'3 6.8
2018-Feb-20 04:00N 29°48' W 094°01'2 3.2
2018-Feb-20 03:28N 29°49' W 093°60'0 0.0
2018-Feb-20 02:58N 29°49' W 093°60'0 0.2
2018-Feb-20 02:28N 29°49' W 093°60'0 0.0
2018-Feb-20 01:58N 29°49' W 093°60'0 0.0
2018-Feb-20 01:28N 29°49' W 093°60'0 0.0
2018-Feb-20 00:58N 29°49' W 093°60'0 0.0
2018-Feb-20 00:28N 29°49' W 093°60'0 0.2
2018-Feb-19 23:58N 29°49' W 093°60'0 0.2
2018-Feb-19 23:28N 29°49' W 093°60'0 0.0
2018-Feb-19 22:58N 29°49' W 093°60'0 0.0
2018-Feb-19 22:28N 29°49' W 093°60'0 0.0
2018-Feb-19 22:01N 29°49' W 093°60'0 0.0
2018-Feb-19 21:25N 29°49' W 093°60'0 0.0
2018-Feb-19 20:58N 29°49' W 093°60'0 0.0
2018-Feb-19 20:25N 29°49' W 093°60'0 0.0
2018-Feb-19 19:58N 29°49' W 093°60'0 0.0
2018-Feb-19 19:31N 29°49' W 093°60'2 4.0
2018-Feb-19 19:00N 29°49' W 093°58'4 7.6
2018-Feb-19 18:30N 29°53' W 093°55'5 9.1
2018-Feb-19 18:01N 29°56' W 093°52'4 7.0
2018-Feb-19 17:31N 29°59' W 093°49'4 7.3
2018-Feb-19 17:00N 30°01' W 093°46'3 6.7
2018-Feb-19 16:30N 30°03' W 093°43'2 4.7
2018-Feb-19 16:00N 30°04' W 093°40'3 5.7
2018-Feb-19 15:30N 30°03' W 093°37'3 4.5
2018-Feb-19 14:56N 30°04' W 093°34'2 5.2
2018-Feb-19 14:27N 30°04' W 093°31'3 6.3
2018-Feb-19 13:55N 30°04' W 093°27'3 6.4
2018-Feb-19 13:30N 30°04' W 093°24'3 5.7
2018-Feb-19 13:00N 30°04' W 093°21'1 2.5
2018-Feb-19 12:30N 30°05' W 093°20'1 1.1
2018-Feb-19 12:00N 30°05' W 093°20'1 2.7
2018-Feb-19 11:30N 30°06' W 093°19'0 0.1
2018-Feb-19 11:00N 30°06' W 093°19'1 1.9
2018-Feb-19 10:30N 30°06' W 093°18'1 2.7
2018-Feb-19 10:00N 30°05' W 093°17'3 4.9
2018-Feb-19 09:29N 30°02' W 093°16'3 6.0
2018-Feb-19 09:00N 30°00' W 093°14'3 6.6
2018-Feb-19 08:30N 29°58' W 093°11'3 5.9
2018-Feb-19 08:01N 29°56' W 093°08'40 5.8
2018-Feb-19 01:07N 29°52' W 092°22'1 5.3
2018-Feb-19 00:54N 29°51' W 092°22'2 5.3
2018-Feb-19 00:30N 29°50' W 092°19'3 5.2
2018-Feb-19 00:00N 29°49' W 092°17'3 5.7
2018-Feb-18 23:30N 29°48' W 092°14'3 5.4
2018-Feb-18 23:00N 29°47' W 092°11'3 5.9
2018-Feb-18 22:30N 29°47' W 092°08'3 6.5
2018-Feb-18 22:00N 29°48' W 092°04'59 2.5
2018-Feb-17 22:24N 29°36' W 090°58'3 6.7
2018-Feb-17 21:54N 29°33' W 090°55'3 6.4
2018-Feb-17 21:23N 29°32' W 090°52'2 6.2
2018-Feb-17 21:00N 29°32' W 090°49'3 5.8
2018-Feb-17 20:30N 29°32' W 090°46'2 4.1
2018-Feb-17 20:00N 29°34' W 090°44'2 4.5
2018-Feb-17 19:30N 29°36' W 090°43'2 3.4
2018-Feb-17 19:00N 29°36' W 090°41'2 4.5
2018-Feb-17 18:30N 29°35' W 090°38'0 0.1
2018-Feb-17 18:00N 29°35' W 090°38'2 3.5
2018-Feb-17 17:30N 29°35' W 090°37'2 4.6
2018-Feb-17 16:59N 29°34' W 090°34'3 5.6
2018-Feb-17 16:30N 29°34' W 090°31'  
2018-Feb-13 05:36N 29°33' W 090°24'0 5.1
2018-Feb-13 05:30N 29°33' W 090°25'3 5.0
2018-Feb-13 04:59N 29°33' W 090°28'2 5.0
2018-Feb-13 04:30N 29°34' W 090°30'2 4.8
2018-Feb-13 04:00N 29°34' W 090°33'2 4.6
2018-Feb-13 03:30N 29°35' W 090°36'2 4.2
2018-Feb-13 03:00N 29°35' W 090°38'2 4.5
2018-Feb-13 02:30N 29°36' W 090°40'2 4.0
2018-Feb-13 02:00N 29°37' W 090°43'2 4.3
2018-Feb-13 01:30N 29°34' W 090°43'2 4.4
2018-Feb-13 01:00N 29°33' W 090°45'2 5.0
2018-Feb-13 00:30N 29°32' W 090°48'3 5.8
2018-Feb-12 23:59N 29°32' W 090°51'3 5.5
2018-Feb-12 23:30N 29°33' W 090°54'57 3.7
2018-Feb-12 08:04N 29°51' W 091°57'0 4.6
2018-Feb-12 08:01N 29°50' W 091°57'2 4.8
2018-Feb-12 07:31N 29°50' W 091°60'3 5.1
2018-Feb-12 07:00N 29°49' W 092°03'2 4.9
2018-Feb-12 06:30N 29°48' W 092°05'3 4.9
2018-Feb-12 05:58N 29°47' W 092°08'2 4.0
2018-Feb-12 05:30N 29°47' W 092°10'3 4.2
2018-Feb-12 04:54N 29°47' W 092°13'2 4.7
2018-Feb-12 04:31N 29°48' W 092°15'3 5.1
2018-Feb-12 04:01N 29°49' W 092°17'40 4.4
2018-Feb-11 18:53N 29°56' W 093°03'2 4.8
2018-Feb-11 18:30N 29°56' W 093°06'2 4.7
2018-Feb-11 17:58N 29°56' W 093°08'2 4.1
2018-Feb-11 17:30N 29°57' W 093°10'2 4.7
2018-Feb-11 17:00N 29°59' W 093°12'2 4.3
2018-Feb-11 16:30N 30°00' W 093°14'2 3.9
2018-Feb-11 16:00N 30°02' W 093°15'2 3.8
2018-Feb-11 15:30N 30°04' W 093°16'2 3.9
2018-Feb-11 14:59N 30°05' W 093°18'1 2.8
2018-Feb-11 14:30N 30°06' W 093°19'1 2.7
2018-Feb-11 14:00N 30°05' W 093°20'0 0.0
2018-Feb-11 13:30N 30°05' W 093°20'0 0.0
2018-Feb-11 13:00N 30°05' W 093°20'0 0.0
2018-Feb-11 12:30N 30°05' W 093°20'0 0.0
2018-Feb-11 11:57N 30°05' W 093°20'0 0.0
2018-Feb-11 11:30N 30°05' W 093°20'0 0.0
2018-Feb-11 11:00N 30°05' W 093°20'0 0.0
2018-Feb-11 10:30N 30°05' W 093°20'0 0.0
2018-Feb-11 10:00N 30°05' W 093°20'0 0.0
2018-Feb-11 09:30N 30°05' W 093°20'0 0.0
2018-Feb-11 09:00N 30°05' W 093°20'0 0.0
2018-Feb-11 08:30N 30°05' W 093°20'0 0.0
2018-Feb-11 08:00N 30°05' W 093°20'0 0.0
2018-Feb-11 07:30N 30°05' W 093°20'  
Track history (hours):
 
Tides and Currents Weather Stations Pressure Air Temp Water Temp Dewpoint Dewpoint Depression Visibility Wind Speed Wind Dir Waves Ship Positions

Marshall B. Barnes

Owner: Florida Marine, LLC, Mandeville, LA. More information available from US FCC via Universal Licensing System and Coast Guard Vessel Documentation Center.

Last reported at 2018-Feb-21 07:24 UTC. Time now 2018-Feb-24 10:11 UTC.
Position N 29°25' W 094°44'.

Length 27 m; draft 2.9 m.

Type: Ship. MMSI: 367517750.

Date/timePositionNaut miles runAvg speedWind from/ knotsBaromVisibWave heightAir tempDewpointWater temp
2018-Feb-21 07:24N 29°25' W 094°44'7 1.1
2018-Feb-21 01:25N 29°28' W 094°38'11 3.0
2018-Feb-20 21:45N 29°34' W 094°27'0 0.0
2018-Feb-20 21:30N 29°34' W 094°27'3 4.3
2018-Feb-20 20:55N 29°36' W 094°25'2 0.9
2018-Feb-20 18:47N 29°36' W 094°23'1 4.2
2018-Feb-20 18:30N 29°37' W 094°22'2 3.1
2018-Feb-20 17:58N 29°37' W 094°20'0 0.1
2018-Feb-20 17:13N 29°37' W 094°20'0 0.2
2018-Feb-20 16:43N 29°37' W 094°20'0 0.3
2018-Feb-20 16:30N 29°37' W 094°20'0 0.1
2018-Feb-20 15:54N 29°37' W 094°20'0 0.2
2018-Feb-20 15:30N 29°37' W 094°20'0 0.0
2018-Feb-20 14:48N 29°37' W 094°20'0 0.0
2018-Feb-20 14:21N 29°37' W 094°20'0 0.0
2018-Feb-20 14:00N 29°37' W 094°20'0 0.0
2018-Feb-20 13:27N 29°37' W 094°20'0 0.0
2018-Feb-20 12:54N 29°37' W 094°20'0 0.0
2018-Feb-20 12:24N 29°37' W 094°20'0 0.0
2018-Feb-20 11:48N 29°37' W 094°20'0 0.0
2018-Feb-20 11:30N 29°37' W 094°20'0 0.0
2018-Feb-20 10:48N 29°37' W 094°20'0 0.0
2018-Feb-20 10:27N 29°37' W 094°20'0 0.0
2018-Feb-20 09:51N 29°37' W 094°20'0 0.0
2018-Feb-20 09:30N 29°37' W 094°20'0 0.5
2018-Feb-20 09:00N 29°37' W 094°19'2 4.7
2018-Feb-20 08:30N 29°39' W 094°17'0 0.0
2018-Feb-20 07:13N 29°39' W 094°17'0 0.1
2018-Feb-20 06:55N 29°39' W 094°17'1 1.7
2018-Feb-20 06:30N 29°39' W 094°16'3 6.4
2018-Feb-20 06:00N 29°40' W 094°13'3 6.3
2018-Feb-20 05:30N 29°41' W 094°10'3 6.2
2018-Feb-20 05:00N 29°43' W 094°07'3 6.8
2018-Feb-20 04:30N 29°45' W 094°04'3 6.8
2018-Feb-20 04:00N 29°48' W 094°01'2 3.2
2018-Feb-20 03:28N 29°49' W 093°60'0 0.0
2018-Feb-20 02:58N 29°49' W 093°60'0 0.2
2018-Feb-20 02:28N 29°49' W 093°60'0 0.0
2018-Feb-20 01:58N 29°49' W 093°60'0 0.0
2018-Feb-20 01:28N 29°49' W 093°60'0 0.0
2018-Feb-20 00:58N 29°49' W 093°60'0 0.0
2018-Feb-20 00:28N 29°49' W 093°60'0 0.2
2018-Feb-19 23:58N 29°49' W 093°60'0 0.2
2018-Feb-19 23:28N 29°49' W 093°60'0 0.0
2018-Feb-19 22:58N 29°49' W 093°60'0 0.0
2018-Feb-19 22:28N 29°49' W 093°60'0 0.0
2018-Feb-19 22:01N 29°49' W 093°60'0 0.0
2018-Feb-19 21:25N 29°49' W 093°60'0 0.0
2018-Feb-19 20:58N 29°49' W 093°60'0 0.0
2018-Feb-19 20:25N 29°49' W 093°60'0 0.0
2018-Feb-19 19:58N 29°49' W 093°60'0 0.0
2018-Feb-19 19:31N 29°49' W 093°60'2 4.0
2018-Feb-19 19:00N 29°49' W 093°58'4 7.6
2018-Feb-19 18:30N 29°53' W 093°55'5 9.1
2018-Feb-19 18:01N 29°56' W 093°52'4 7.0
2018-Feb-19 17:31N 29°59' W 093°49'4 7.3
2018-Feb-19 17:00N 30°01' W 093°46'3 6.7
2018-Feb-19 16:30N 30°03' W 093°43'2 4.7
2018-Feb-19 16:00N 30°04' W 093°40'3 5.7
2018-Feb-19 15:30N 30°03' W 093°37'3 4.5
2018-Feb-19 14:56N 30°04' W 093°34'2 5.2
2018-Feb-19 14:27N 30°04' W 093°31'3 6.3
2018-Feb-19 13:55N 30°04' W 093°27'3 6.4
2018-Feb-19 13:30N 30°04' W 093°24'3 5.7
2018-Feb-19 13:00N 30°04' W 093°21'1 2.5
2018-Feb-19 12:30N 30°05' W 093°20'1 1.1
2018-Feb-19 12:00N 30°05' W 093°20'1 2.7
2018-Feb-19 11:30N 30°06' W 093°19'0 0.1
2018-Feb-19 11:00N 30°06' W 093°19'1 1.9
2018-Feb-19 10:30N 30°06' W 093°18'1 2.7
2018-Feb-19 10:00N 30°05' W 093°17'3 4.9
2018-Feb-19 09:29N 30°02' W 093°16'3 6.0
2018-Feb-19 09:00N 30°00' W 093°14'3 6.6
2018-Feb-19 08:30N 29°58' W 093°11'3 5.9
2018-Feb-19 08:01N 29°56' W 093°08'40 5.8
2018-Feb-19 01:07N 29°52' W 092°22'1 5.3
2018-Feb-19 00:54N 29°51' W 092°22'2 5.3
2018-Feb-19 00:30N 29°50' W 092°19'3 5.2
2018-Feb-19 00:00N 29°49' W 092°17'3 5.7
2018-Feb-18 23:30N 29°48' W 092°14'3 5.4
2018-Feb-18 23:00N 29°47' W 092°11'3 5.9
2018-Feb-18 22:30N 29°47' W 092°08'3 6.5
2018-Feb-18 22:00N 29°48' W 092°04'59 2.5
2018-Feb-17 22:24N 29°36' W 090°58'3 6.7
2018-Feb-17 21:54N 29°33' W 090°55'3 6.4
2018-Feb-17 21:23N 29°32' W 090°52'2 6.2
2018-Feb-17 21:00N 29°32' W 090°49'3 5.8
2018-Feb-17 20:30N 29°32' W 090°46'2 4.1
2018-Feb-17 20:00N 29°34' W 090°44'2 4.5
2018-Feb-17 19:30N 29°36' W 090°43'2 3.4
2018-Feb-17 19:00N 29°36' W 090°41'2 4.5
2018-Feb-17 18:30N 29°35' W 090°38'0 0.1
2018-Feb-17 18:00N 29°35' W 090°38'2 3.5
2018-Feb-17 17:30N 29°35' W 090°37'2 4.6
2018-Feb-17 16:59N 29°34' W 090°34'3 5.6
2018-Feb-17 16:30N 29°34' W 090°31'  
2018-Feb-13 05:36N 29°33' W 090°24'0 5.1
2018-Feb-13 05:30N 29°33' W 090°25'3 5.0
2018-Feb-13 04:59N 29°33' W 090°28'2 5.0
2018-Feb-13 04:30N 29°34' W 090°30'2 4.8
2018-Feb-13 04:00N 29°34' W 090°33'2 4.6
2018-Feb-13 03:30N 29°35' W 090°36'2 4.2
2018-Feb-13 03:00N 29°35' W 090°38'2 4.5
2018-Feb-13 02:30N 29°36' W 090°40'2 4.0
2018-Feb-13 02:00N 29°37' W 090°43'2 4.3
2018-Feb-13 01:30N 29°34' W 090°43'2 4.4
2018-Feb-13 01:00N 29°33' W 090°45'2 5.0
2018-Feb-13 00:30N 29°32' W 090°48'3 5.8
2018-Feb-12 23:59N 29°32' W 090°51'3 5.5
2018-Feb-12 23:30N 29°33' W 090°54'57 3.7
2018-Feb-12 08:04N 29°51' W 091°57'0 4.6
2018-Feb-12 08:01N 29°50' W 091°57'2 4.8
2018-Feb-12 07:31N 29°50' W 091°60'3 5.1
2018-Feb-12 07:00N 29°49' W 092°03'2 4.9
2018-Feb-12 06:30N 29°48' W 092°05'3 4.9
2018-Feb-12 05:58N 29°47' W 092°08'2 4.0
2018-Feb-12 05:30N 29°47' W 092°10'3 4.2
2018-Feb-12 04:54N 29°47' W 092°13'2 4.7
2018-Feb-12 04:31N 29°48' W 092°15'3 5.1
2018-Feb-12 04:01N 29°49' W 092°17'40 4.4
2018-Feb-11 18:53N 29°56' W 093°03'2 4.8
2018-Feb-11 18:30N 29°56' W 093°06'2 4.7
2018-Feb-11 17:58N 29°56' W 093°08'2 4.1
2018-Feb-11 17:30N 29°57' W 093°10'2 4.7
2018-Feb-11 17:00N 29°59' W 093°12'2 4.3
2018-Feb-11 16:30N 30°00' W 093°14'2 3.9
2018-Feb-11 16:00N 30°02' W 093°15'2 3.8
2018-Feb-11 15:30N 30°04' W 093°16'2 3.9
2018-Feb-11 14:59N 30°05' W 093°18'1 2.8
2018-Feb-11 14:30N 30°06' W 093°19'1 2.7
2018-Feb-11 14:00N 30°05' W 093°20'0 0.0
2018-Feb-11 13:30N 30°05' W 093°20'0 0.0
2018-Feb-11 13:00N 30°05' W 093°20'0 0.0
2018-Feb-11 12:30N 30°05' W 093°20'0 0.0
2018-Feb-11 11:57N 30°05' W 093°20'0 0.0
2018-Feb-11 11:30N 30°05' W 093°20'0 0.0
2018-Feb-11 11:00N 30°05' W 093°20'0 0.0
2018-Feb-11 10:30N 30°05' W 093°20'0 0.0
2018-Feb-11 10:00N 30°05' W 093°20'0 0.0
2018-Feb-11 09:30N 30°05' W 093°20'0 0.0
2018-Feb-11 09:00N 30°05' W 093°20'0 0.0
2018-Feb-11 08:30N 30°05' W 093°20'0 0.0
2018-Feb-11 08:00N 30°05' W 093°20'0 0.0
2018-Feb-11 07:30N 30°05' W 093°20'  

Dump ship's entire track history